createdAt,value
2023-05-09T00:01:45.442Z,76.31
2023-05-09T00:04:12.400Z,76.81
2023-05-09T00:06:39.124Z,76.83
2023-05-09T00:09:05.853Z,76.46
2023-05-09T00:11:32.607Z,76.47
2023-05-09T00:13:59.369Z,76.30
2023-05-09T00:16:26.161Z,76.71
2023-05-09T00:18:53.085Z,77.19
2023-05-09T00:21:20.201Z,77.64
2023-05-09T00:23:47.797Z,77.07
2023-05-09T00:26:14.553Z,77.54
2023-05-09T00:28:43.308Z,77.15
2023-05-09T00:31:10.151Z,77.71
2023-05-09T00:33:36.896Z,77.62
2023-05-09T00:36:04.079Z,77.70
2023-05-09T00:38:30.779Z,78.04
2023-05-09T00:40:57.602Z,77.47
2023-05-09T00:43:24.348Z,77.51
2023-05-09T00:45:51.310Z,77.81
2023-05-09T00:48:18.450Z,77.40
2023-05-09T00:50:46.421Z,77.40
2023-05-09T00:53:13.370Z,77.70
2023-05-09T00:55:40.542Z,77.62
2023-05-09T00:58:07.350Z,77.91
2023-05-09T01:00:34.123Z,77.87
2023-05-09T01:03:01.605Z,77.68
2023-05-09T01:05:40.753Z,77.53
2023-05-09T01:08:21.746Z,77.92
2023-05-09T01:11:16.417Z,78.42
2023-05-09T01:14:08.429Z,78.03
2023-05-09T01:17:05.612Z,77.72
2023-05-09T01:20:02.612Z,78.17
2023-05-09T01:22:32.591Z,78.44
2023-05-09T01:25:25.431Z,78.23
2023-05-09T01:28:07.807Z,78.39
2023-05-09T01:30:37.861Z,78.03
2023-05-09T01:33:08.543Z,78.10
2023-05-09T01:35:37.855Z,78.41
2023-05-09T01:38:11.882Z,78.76
2023-05-09T01:40:42.456Z,78.64
2023-05-09T01:43:10.024Z,78.43
2023-05-09T01:45:39.133Z,78.00
2023-05-09T01:48:08.492Z,78.05
2023-05-09T01:50:40.025Z,78.80
2023-05-09T01:53:08.733Z,79.10
2023-05-09T01:55:37.750Z,79.18
2023-05-09T01:58:06.532Z,79.02
2023-05-09T02:00:37.076Z,78.82
2023-05-09T02:03:04.990Z,78.91
2023-05-09T02:05:33.570Z,79.35
2023-05-09T02:08:01.989Z,79.41
2023-05-09T02:10:29.461Z,80.06
2023-05-09T02:12:57.432Z,79.90
2023-05-09T02:15:24.896Z,79.73
2023-05-09T02:17:52.065Z,79.97
2023-05-09T02:20:19.013Z,80.16
2023-05-09T02:22:46.985Z,79.88
2023-05-09T02:25:17.246Z,80.42
2023-05-09T02:27:46.493Z,80.46
2023-05-09T02:30:21.108Z,80.12
2023-05-09T02:32:50.910Z,79.88
2023-05-09T02:35:20.532Z,80.46
2023-05-09T02:37:47.703Z,80.12
2023-05-09T02:40:14.837Z,80.12
2023-05-09T02:42:41.779Z,80.46
2023-05-09T02:45:10.603Z,80.53
2023-05-09T02:47:38.311Z,80.08
2023-05-09T02:50:08.729Z,79.89
2023-05-09T02:52:37.284Z,80.13
2023-05-09T02:55:05.046Z,80.42
2023-05-09T02:57:35.389Z,80.81
2023-05-09T03:00:03.780Z,80.30
2023-05-09T03:02:30.961Z,81.08
2023-05-09T03:04:58.671Z,81.08
2023-05-09T03:07:25.436Z,81.30
2023-05-09T03:09:52.254Z,81.28
2023-05-09T03:12:19.248Z,81.19
2023-05-09T03:14:46.109Z,81.24
2023-05-09T03:17:12.856Z,81.56
2023-05-09T03:19:39.678Z,81.69
2023-05-09T03:22:06.413Z,81.45
2023-05-09T03:24:37.776Z,81.54
2023-05-09T03:27:04.718Z,81.82
2023-05-09T03:29:31.562Z,81.42
2023-05-09T03:31:59.111Z,81.08
2023-05-09T03:34:25.933Z,81.69
2023-05-09T03:36:52.918Z,81.98
2023-05-09T03:39:19.592Z,81.78
2023-05-09T03:41:49.213Z,81.47
2023-05-09T03:44:15.974Z,81.56
2023-05-09T03:46:42.835Z,81.47
2023-05-09T03:49:09.784Z,81.22
2023-05-09T03:51:38.259Z,81.37
2023-05-09T03:54:10.077Z,81.37
2023-05-09T03:56:37.322Z,82.14
2023-05-09T03:59:04.238Z,82.26
2023-05-09T04:01:33.181Z,82.07
2023-05-09T04:04:01.716Z,82.27
2023-05-09T04:06:33.583Z,82.51
2023-05-09T04:09:01.307Z,82.20
2023-05-09T04:11:28.064Z,82.95
2023-05-09T04:13:56.873Z,83.33
2023-05-09T04:16:33.682Z,83.57
2023-05-09T04:19:00.440Z,83.99
2023-05-09T04:21:27.125Z,83.98
2023-05-09T04:23:57.473Z,84.16
2023-05-09T04:26:34.612Z,83.73
2023-05-09T04:29:01.523Z,83.62
2023-05-09T04:31:29.241Z,83.39
2023-05-09T04:33:58.433Z,83.52
2023-05-09T04:36:27.619Z,83.32
2023-05-09T04:38:57.488Z,83.33
2023-05-09T04:41:26.170Z,83.38
2023-05-09T04:43:52.931Z,82.58
2023-05-09T04:46:22.724Z,82.87
2023-05-09T04:48:51.189Z,83.00
2023-05-09T04:51:17.891Z,82.75
2023-05-09T04:53:44.941Z,83.45
2023-05-09T04:56:11.703Z,83.59
2023-05-09T04:58:39.580Z,83.62
2023-05-09T05:01:10.091Z,83.50
2023-05-09T05:03:36.958Z,83.90
2023-05-09T05:06:05.170Z,84.00
2023-05-09T05:08:32.068Z,83.72
2023-05-09T05:10:58.802Z,83.22
2023-05-09T05:13:26.148Z,83.24
2023-05-09T05:15:58.045Z,82.99
2023-05-09T05:18:25.436Z,82.52
2023-05-09T05:20:52.364Z,82.61
2023-05-09T05:23:19.467Z,82.70
2023-05-09T05:25:46.683Z,83.00
2023-05-09T05:28:14.392Z,82.83
2023-05-09T05:30:41.988Z,83.06
2023-05-09T05:33:08.758Z,83.39
2023-05-09T05:35:35.659Z,83.75
2023-05-09T05:38:02.717Z,84.38
2023-05-09T05:40:29.555Z,84.86
2023-05-09T05:42:58.257Z,85.10
2023-05-09T05:45:26.408Z,84.32
2023-05-09T05:47:56.408Z,83.93
2023-05-09T05:50:24.128Z,83.87
2023-05-09T05:52:51.069Z,83.98
2023-05-09T05:55:19.807Z,84.27
2023-05-09T05:57:47.731Z,84.45
2023-05-09T06:00:16.525Z,84.39
2023-05-09T06:02:56.108Z,84.41
2023-05-09T06:05:36.175Z,83.82
2023-05-09T06:08:03.349Z,83.75
2023-05-09T06:10:31.849Z,83.96
2023-05-09T06:12:58.650Z,84.10
2023-05-09T06:15:25.450Z,83.89
2023-05-09T06:17:52.364Z,83.64
2023-05-09T06:20:19.196Z,83.78
2023-05-09T06:22:45.901Z,83.50
2023-05-09T06:25:12.851Z,83.26
2023-05-09T06:27:39.714Z,82.74
2023-05-09T06:30:24.011Z,82.67
2023-05-09T06:32:52.166Z,82.11
2023-05-09T06:35:18.951Z,82.43
2023-05-09T06:37:48.230Z,82.50
2023-05-09T06:40:15.571Z,82.87
2023-05-09T06:42:42.631Z,82.21
2023-05-09T06:45:09.939Z,81.99
2023-05-09T06:47:36.702Z,81.01
2023-05-09T06:50:03.905Z,80.11
2023-05-09T06:52:30.593Z,80.05
2023-05-09T06:54:57.318Z,79.69
2023-05-09T06:57:24.159Z,78.40
2023-05-09T06:59:50.962Z,76.55
2023-05-09T07:02:17.765Z,77.83
2023-05-09T07:04:44.630Z,77.03
2023-05-09T07:07:11.440Z,77.41
2023-05-09T07:09:38.338Z,75.39
2023-05-09T07:12:05.449Z,74.56
2023-05-09T07:14:32.193Z,74.07
2023-05-09T07:17:13.799Z,73.34
2023-05-09T07:19:46.106Z,71.81
2023-05-09T07:22:13.615Z,72.61
2023-05-09T07:24:40.524Z,71.96
2023-05-09T07:27:07.375Z,72.49
2023-05-09T07:29:34.095Z,72.41
2023-05-09T07:32:00.898Z,72.35
2023-05-09T07:34:27.648Z,73.19
2023-05-09T07:36:54.340Z,73.00
2023-05-09T07:39:21.165Z,73.28
2023-05-09T07:41:48.779Z,73.62
2023-05-09T07:44:16.031Z,72.92
2023-05-09T07:46:42.972Z,72.98
2023-05-09T07:49:09.914Z,73.58
2023-05-09T07:51:36.749Z,73.80
2023-05-09T07:54:03.768Z,73.47
2023-05-09T07:56:30.628Z,71.16
2023-05-09T07:58:57.618Z,70.79
2023-05-09T08:01:24.609Z,70.76
2023-05-09T08:03:51.379Z,71.51
2023-05-09T08:06:18.133Z,72.05
2023-05-09T08:08:44.897Z,72.62
2023-05-09T08:11:11.652Z,70.43
2023-05-09T08:13:38.358Z,67.83
2023-05-09T08:16:05.901Z,67.81
2023-05-09T08:18:32.891Z,67.41
2023-05-09T08:20:59.808Z,68.32
2023-05-09T08:23:27.223Z,69.03
2023-05-09T08:25:54.816Z,66.19
2023-05-09T08:28:24.930Z,67.41
2023-05-09T08:30:52.266Z,65.24
2023-05-09T08:33:19.261Z,64.82
2023-05-09T08:35:50.213Z,66.15
2023-05-09T08:38:17.086Z,64.90
2023-05-09T08:40:43.824Z,66.96
2023-05-09T08:43:12.624Z,67.51
2023-05-09T08:45:46.966Z,65.84
2023-05-09T08:48:16.295Z,66.70
2023-05-09T08:50:44.358Z,64.59
2023-05-09T08:53:12.434Z,67.30
2023-05-09T08:55:39.621Z,64.42
2023-05-09T08:58:06.955Z,64.68
2023-05-09T09:00:34.650Z,66.15
2023-05-09T09:03:05.754Z,63.33
2023-05-09T09:05:41.827Z,61.84
2023-05-09T09:08:09.827Z,62.71
2023-05-09T09:10:41.437Z,64.15
2023-05-09T09:13:10.127Z,61.99
2023-05-09T09:15:38.605Z,60.75
2023-05-09T09:18:10.316Z,61.21
2023-05-09T09:20:43.425Z,60.49
2023-05-09T09:23:10.762Z,62.35
2023-05-09T09:25:37.566Z,62.61
2023-05-09T09:28:05.623Z,60.78
2023-05-09T09:30:33.871Z,60.91
2023-05-09T09:33:00.816Z,59.43
2023-05-09T09:35:27.602Z,60.23
2023-05-09T09:38:00.274Z,60.11
2023-05-09T09:40:27.197Z,58.87
2023-05-09T09:42:54.074Z,59.50
2023-05-09T09:45:21.204Z,59.64
2023-05-09T09:47:50.247Z,59.11
2023-05-09T09:50:19.647Z,58.44
2023-05-09T09:52:52.094Z,59.05
2023-05-09T09:55:20.153Z,56.83
2023-05-09T09:57:48.557Z,57.06
2023-05-09T10:00:17.990Z,59.55
2023-05-09T10:02:48.330Z,57.39
2023-05-09T10:05:24.234Z,56.83
2023-05-09T10:07:54.949Z,57.34
2023-05-09T10:10:22.732Z,60.02
2023-05-09T10:12:51.168Z,59.18
2023-05-09T10:15:20.415Z,58.35
2023-05-09T10:17:48.592Z,56.46
2023-05-09T10:20:17.646Z,56.90
2023-05-09T10:22:45.717Z,50.09
2023-05-09T10:25:23.508Z,51.00
2023-05-09T10:27:54.183Z,51.43
2023-05-09T10:30:34.098Z,52.06
2023-05-09T10:33:09.080Z,55.55
2023-05-09T10:35:40.798Z,55.95
2023-05-09T10:38:07.943Z,52.58
2023-05-09T10:40:35.326Z,53.75
2023-05-09T10:43:02.058Z,53.09
2023-05-09T10:45:29.006Z,55.72
2023-05-09T10:47:56.995Z,54.05
2023-05-09T10:50:24.317Z,56.05
2023-05-09T10:53:08.094Z,55.59
2023-05-09T10:55:46.670Z,51.61
2023-05-09T10:58:24.865Z,50.52
2023-05-09T11:00:57.785Z,52.54
2023-05-09T11:03:26.066Z,53.15
2023-05-09T11:05:55.316Z,50.07
2023-05-09T11:08:28.840Z,50.19
2023-05-09T11:11:05.574Z,52.40
2023-05-09T11:13:37.717Z,53.33
2023-05-09T11:16:07.998Z,54.69
2023-05-09T11:18:34.823Z,54.28
2023-05-09T11:21:08.862Z,52.87
2023-05-09T11:23:35.660Z,54.31
2023-05-09T11:26:07.325Z,54.17
2023-05-09T11:28:36.812Z,53.68
2023-05-09T11:31:14.826Z,54.61
2023-05-09T11:33:43.577Z,55.28
2023-05-09T11:36:25.178Z,56.77
2023-05-09T11:39:01.839Z,58.93
2023-05-09T11:41:29.225Z,54.44
2023-05-09T11:43:57.112Z,53.53
2023-05-09T11:46:23.976Z,56.91
2023-05-09T11:48:50.731Z,57.32
2023-05-09T11:51:19.066Z,56.48
2023-05-09T11:53:54.157Z,57.81
2023-05-09T11:56:23.149Z,58.23
2023-05-09T11:58:51.957Z,57.22
2023-05-09T12:01:19.697Z,57.07
2023-05-09T12:03:46.686Z,56.44
2023-05-09T12:06:18.298Z,55.47
2023-05-09T12:08:46.318Z,56.35
2023-05-09T12:11:16.262Z,53.29
2023-05-09T12:13:50.231Z,54.63
2023-05-09T12:16:18.453Z,54.96
2023-05-09T12:18:50.192Z,56.89
2023-05-09T12:21:17.936Z,55.56
2023-05-09T12:23:47.046Z,56.26
2023-05-09T12:26:16.418Z,56.54
2023-05-09T12:28:43.944Z,56.66
2023-05-09T12:31:11.599Z,55.12
2023-05-09T12:33:39.500Z,54.17
2023-05-09T12:36:06.557Z,54.27
2023-05-09T12:38:33.717Z,55.75
2023-05-09T12:41:04.232Z,56.05
2023-05-09T12:43:35.131Z,55.19
2023-05-09T12:46:03.394Z,53.57
2023-05-09T12:48:34.769Z,54.46
2023-05-09T12:51:05.976Z,54.36
2023-05-09T12:53:40.474Z,53.22
2023-05-09T12:56:16.470Z,53.19
2023-05-09T12:58:54.870Z,54.20
2023-05-09T13:01:27.505Z,51.88
2023-05-09T13:04:09.483Z,54.18
2023-05-09T13:06:48.719Z,54.38
2023-05-09T13:09:16.043Z,52.78
2023-05-09T13:11:42.808Z,53.75
2023-05-09T13:14:09.602Z,53.01
2023-05-09T13:16:36.527Z,53.60
2023-05-09T13:19:05.388Z,53.55
2023-05-09T13:21:33.018Z,54.58
2023-05-09T13:24:00.097Z,56.12
2023-05-09T13:26:27.458Z,54.42
2023-05-09T13:28:54.292Z,56.07
2023-05-09T13:31:21.563Z,55.26
2023-05-09T13:33:51.701Z,53.65
2023-05-09T13:36:19.230Z,51.56
2023-05-09T13:38:46.247Z,52.33
2023-05-09T13:41:14.100Z,52.36
2023-05-09T13:43:43.739Z,53.35
2023-05-09T13:46:10.614Z,54.90
2023-05-09T13:48:37.827Z,54.75
2023-05-09T13:51:06.387Z,57.51
2023-05-09T13:53:35.046Z,56.46
2023-05-09T13:56:03.168Z,55.11
2023-05-09T13:58:29.922Z,52.76
2023-05-09T14:00:56.677Z,54.91
2023-05-09T14:03:23.697Z,54.46
2023-05-09T14:05:51.160Z,53.54
2023-05-09T14:08:17.988Z,55.21
2023-05-09T14:10:45.090Z,55.18
2023-05-09T14:13:12.590Z,54.25
2023-05-09T14:15:40.270Z,57.81
2023-05-09T14:18:07.137Z,55.00
2023-05-09T14:20:36.840Z,56.91
2023-05-09T14:23:03.675Z,55.46
2023-05-09T14:25:30.373Z,57.07
2023-05-09T14:27:58.050Z,56.72
2023-05-09T14:30:25.776Z,54.95
2023-05-09T14:32:52.918Z,55.78
2023-05-09T14:35:19.742Z,56.48
2023-05-09T14:37:46.661Z,55.11
2023-05-09T14:40:13.512Z,55.98
2023-05-09T14:42:40.696Z,55.31
2023-05-09T14:45:10.829Z,55.67
2023-05-09T14:47:37.647Z,54.50
2023-05-09T14:50:04.815Z,54.19
2023-05-09T14:52:31.843Z,56.43
2023-05-09T14:54:59.798Z,55.16
2023-05-09T14:57:26.700Z,56.37
2023-05-09T14:59:53.415Z,55.55
2023-05-09T15:02:20.168Z,53.70
2023-05-09T15:04:46.925Z,54.48
2023-05-09T15:07:13.633Z,54.13
2023-05-09T15:09:40.386Z,56.16
2023-05-09T15:12:07.321Z,54.99
2023-05-09T15:14:34.069Z,53.73
2023-05-09T15:17:03.549Z,54.53
2023-05-09T15:19:35.780Z,50.82
2023-05-09T15:22:04.730Z,52.69
2023-05-09T15:24:33.344Z,53.89
2023-05-09T15:27:00.384Z,55.59
2023-05-09T15:29:27.301Z,54.98
2023-05-09T15:31:56.791Z,53.47
2023-05-09T15:34:25.726Z,54.66
2023-05-09T15:36:52.534Z,55.38
2023-05-09T15:39:19.859Z,54.58
2023-05-09T15:41:46.834Z,53.97
2023-05-09T15:44:14.706Z,54.98
2023-05-09T15:46:41.604Z,52.90
2023-05-09T15:49:08.382Z,51.75
2023-05-09T15:51:35.055Z,53.24
2023-05-09T15:54:01.817Z,52.24
2023-05-09T15:56:28.524Z,52.73
2023-05-09T15:58:55.360Z,53.65
2023-05-09T16:01:22.164Z,53.30
2023-05-09T16:03:49.259Z,52.33
2023-05-09T16:06:16.487Z,52.96
2023-05-09T16:08:43.245Z,54.33
2023-05-09T16:11:10.355Z,53.02
2023-05-09T16:13:37.406Z,53.86
2023-05-09T16:16:04.791Z,53.88
2023-05-09T16:18:31.685Z,53.60
2023-05-09T16:20:59.831Z,54.05
2023-05-09T16:23:26.985Z,53.07
2023-05-09T16:25:53.656Z,54.87
2023-05-09T16:28:23.590Z,52.87
2023-05-09T16:30:51.527Z,53.30
2023-05-09T16:33:18.821Z,53.81
2023-05-09T16:35:46.074Z,54.13
2023-05-09T16:38:13.351Z,54.86
2023-05-09T16:40:40.243Z,54.29
2023-05-09T16:43:07.368Z,53.03
2023-05-09T16:45:34.268Z,53.00
2023-05-09T16:48:02.381Z,52.73
2023-05-09T16:50:29.486Z,53.37
2023-05-09T16:52:56.321Z,53.26
2023-05-09T16:55:23.224Z,54.27
2023-05-09T16:57:49.980Z,54.32
2023-05-09T17:00:17.947Z,53.00
2023-05-09T17:02:44.889Z,52.27
2023-05-09T17:05:11.817Z,52.22
2023-05-09T17:07:38.786Z,51.89
2023-05-09T17:10:05.959Z,52.63
2023-05-09T17:12:32.632Z,52.67
2023-05-09T17:14:59.434Z,53.56
2023-05-09T17:17:26.363Z,52.90
2023-05-09T17:19:53.214Z,52.55
2023-05-09T17:22:19.982Z,53.30
2023-05-09T17:24:46.760Z,53.50
2023-05-09T17:27:13.758Z,53.18
2023-05-09T17:29:40.810Z,52.25
2023-05-09T17:32:07.529Z,52.55
2023-05-09T17:34:34.298Z,53.39
2023-05-09T17:37:02.542Z,52.93
2023-05-09T17:39:32.610Z,53.60
2023-05-09T17:41:59.454Z,53.64
2023-05-09T17:44:26.101Z,52.20
2023-05-09T17:46:52.885Z,54.03
2023-05-09T17:49:19.563Z,54.94
2023-05-09T17:51:47.012Z,56.49
2023-05-09T17:54:14.338Z,52.50
2023-05-09T17:56:41.659Z,52.78
2023-05-09T17:59:08.549Z,54.24
2023-05-09T18:01:35.803Z,54.44
2023-05-09T18:04:02.985Z,53.81
2023-05-09T18:06:29.808Z,54.31
2023-05-09T18:08:56.652Z,53.63
2023-05-09T18:11:24.549Z,53.20
2023-05-09T18:13:51.438Z,55.43
2023-05-09T18:16:18.420Z,56.95
2023-05-09T18:18:45.369Z,56.74
2023-05-09T18:21:12.386Z,56.89
2023-05-09T18:23:39.376Z,56.25
2023-05-09T18:26:06.357Z,57.42
2023-05-09T18:28:41.806Z,57.97
2023-05-09T18:31:10.255Z,57.45
2023-05-09T18:33:39.073Z,58.00
2023-05-09T18:36:08.973Z,58.21
2023-05-09T18:38:38.344Z,58.35
2023-05-09T18:41:09.726Z,57.33
2023-05-09T18:43:38.844Z,57.03
2023-05-09T18:46:05.905Z,58.07
2023-05-09T18:48:33.599Z,58.01
2023-05-09T18:51:00.538Z,58.01
2023-05-09T18:53:28.930Z,57.89
2023-05-09T18:55:57.016Z,57.65
2023-05-09T18:58:24.861Z,57.93
2023-05-09T19:00:53.098Z,58.33
2023-05-09T19:03:20.969Z,58.64
2023-05-09T19:05:47.967Z,58.76
2023-05-09T19:08:15.153Z,58.42
2023-05-09T19:10:42.558Z,57.77
2023-05-09T19:13:09.725Z,57.47
2023-05-09T19:15:36.741Z,57.39
2023-05-09T19:18:03.946Z,56.64
2023-05-09T19:20:31.431Z,57.70
2023-05-09T19:22:59.114Z,59.29
2023-05-09T19:25:26.503Z,59.57
2023-05-09T19:27:53.654Z,60.21
2023-05-09T19:30:21.196Z,60.34
2023-05-09T19:32:48.456Z,59.46
2023-05-09T19:35:16.119Z,58.75
2023-05-09T19:37:43.308Z,59.85
2023-05-09T19:40:11.377Z,60.79
2023-05-09T19:42:38.546Z,61.12
2023-05-09T19:45:06.167Z,60.13
2023-05-09T19:47:33.311Z,59.95
2023-05-09T19:50:02.129Z,59.39
2023-05-09T19:52:30.113Z,59.45
2023-05-09T19:54:56.870Z,59.93
2023-05-09T19:57:23.924Z,60.50
2023-05-09T19:59:52.003Z,60.56
2023-05-09T20:02:19.035Z,60.15
2023-05-09T20:04:49.916Z,59.03
2023-05-09T20:07:18.003Z,59.29
2023-05-09T20:09:44.888Z,60.25
2023-05-09T20:12:13.418Z,59.98
2023-05-09T20:14:40.811Z,60.43
2023-05-09T20:17:07.769Z,59.86
2023-05-09T20:19:35.059Z,60.14
2023-05-09T20:22:02.422Z,60.62
2023-05-09T20:24:31.550Z,61.07
2023-05-09T20:26:58.738Z,61.51
2023-05-09T20:29:26.510Z,61.47
2023-05-09T20:31:53.490Z,61.82
2023-05-09T20:34:22.145Z,61.88
2023-05-09T20:37:00.165Z,61.93
2023-05-09T20:39:27.525Z,61.16
2023-05-09T20:41:55.973Z,60.64
2023-05-09T20:44:22.849Z,61.26
2023-05-09T20:46:49.719Z,61.06
2023-05-09T20:49:16.713Z,60.62
2023-05-09T20:51:43.654Z,61.40
2023-05-09T20:54:10.786Z,61.19
2023-05-09T20:56:37.682Z,61.69
2023-05-09T20:59:06.892Z,61.07
2023-05-09T21:01:37.025Z,62.85
2023-05-09T21:04:05.969Z,61.65
2023-05-09T21:06:33.255Z,61.98
2023-05-09T21:09:00.201Z,62.76
2023-05-09T21:11:26.956Z,63.03
2023-05-09T21:13:54.212Z,62.95
2023-05-09T21:16:21.253Z,62.89
2023-05-09T21:18:48.170Z,64.61
2023-05-09T21:21:14.942Z,65.25
2023-05-09T21:23:41.712Z,65.72
2023-05-09T21:26:09.149Z,66.15
2023-05-09T21:28:36.093Z,66.63
2023-05-09T21:31:03.407Z,67.05
2023-05-09T21:33:30.922Z,67.49
2023-05-09T21:35:58.671Z,67.51
2023-05-09T21:38:25.566Z,68.20
2023-05-09T21:40:52.306Z,68.45
2023-05-09T21:43:19.533Z,68.83
2023-05-09T21:45:46.475Z,69.03
2023-05-09T21:48:13.509Z,69.47
2023-05-09T21:50:40.425Z,70.40
2023-05-09T21:53:07.272Z,71.01
2023-05-09T21:55:34.489Z,71.92
2023-05-09T21:58:01.348Z,72.40
2023-05-09T22:00:28.099Z,72.26
2023-05-09T22:02:55.073Z,72.89
2023-05-09T22:05:23.333Z,72.45
2023-05-09T22:07:51.320Z,72.46
2023-05-09T22:10:18.332Z,72.81
2023-05-09T22:12:45.297Z,74.09
2023-05-09T22:15:13.490Z,74.20
2023-05-09T22:17:40.369Z,75.25
2023-05-09T22:20:07.672Z,76.51
2023-05-09T22:22:34.498Z,74.13
2023-05-09T22:25:01.265Z,75.25
2023-05-09T22:27:28.027Z,76.77
2023-05-09T22:29:55.551Z,77.38
2023-05-09T22:32:22.281Z,77.27
2023-05-09T22:34:49.072Z,77.78
2023-05-09T22:37:16.106Z,77.90
2023-05-09T22:39:45.681Z,78.28
2023-05-09T22:42:12.505Z,78.44
2023-05-09T22:44:39.547Z,79.00
2023-05-09T22:47:09.718Z,79.38
2023-05-09T22:49:36.465Z,79.30
2023-05-09T22:52:03.367Z,79.52
2023-05-09T22:54:30.148Z,79.73
2023-05-09T22:56:56.839Z,79.94
2023-05-09T22:59:23.839Z,79.82
2023-05-09T23:01:50.767Z,80.02
2023-05-09T23:04:17.578Z,80.76
2023-05-09T23:06:44.368Z,80.96
2023-05-09T23:09:11.125Z,81.08
2023-05-09T23:11:37.876Z,80.85
2023-05-09T23:14:04.657Z,80.94
2023-05-09T23:16:31.331Z,80.84
2023-05-09T23:18:58.087Z,82.25
2023-05-09T23:21:24.824Z,82.28
2023-05-09T23:23:51.556Z,83.12
2023-05-09T23:26:18.208Z,83.63
2023-05-09T23:28:44.896Z,83.60
2023-05-09T23:31:11.681Z,84.59
2023-05-09T23:33:38.392Z,84.45
2023-05-09T23:36:05.509Z,83.96
2023-05-09T23:38:32.220Z,82.78
2023-05-09T23:41:00.095Z,84.15
2023-05-09T23:43:27.008Z,83.57
2023-05-09T23:45:53.979Z,83.60
2023-05-09T23:48:20.807Z,83.57
2023-05-09T23:50:47.839Z,83.54
2023-05-09T23:53:14.636Z,82.17
2023-05-09T23:55:41.356Z,83.99
2023-05-09T23:58:08.064Z,84.58
